createdAt,value
2017-10-14T00:02:55.867Z,12.60
2017-10-14T00:07:57.744Z,12.50
2017-10-14T00:12:59.826Z,12.50
2017-10-14T00:18:01.908Z,12.40
2017-10-14T00:23:03.991Z,12.40
2017-10-14T00:28:05.869Z,12.40
2017-10-14T00:33:07.957Z,12.30
2017-10-14T00:38:09.828Z,12.20
2017-10-14T00:43:11.910Z,12.20
2017-10-14T00:48:13.993Z,12.10
2017-10-14T00:53:15.870Z,12.00
2017-10-14T00:58:17.952Z,11.90
2017-10-14T01:03:20.035Z,11.90
2017-10-14T01:08:22.117Z,11.90
2017-10-14T01:13:23.994Z,11.90
2017-10-14T01:18:26.077Z,11.80
2017-10-14T01:23:28.367Z,11.70
2017-10-14T01:28:30.654Z,11.80
2017-10-14T01:33:33.144Z,11.80
2017-10-14T01:38:35.227Z,11.70
2017-10-14T01:43:37.308Z,11.80
2017-10-14T01:48:39.390Z,11.80
2017-10-14T01:53:41.473Z,11.70
2017-10-14T01:58:43.559Z,11.60
2017-10-14T02:03:45.637Z,11.40
2017-10-14T02:08:47.720Z,11.40
2017-10-14T02:13:49.804Z,11.50
2017-10-14T02:18:51.885Z,11.50
2017-10-14T02:23:53.969Z,11.40
2017-10-14T02:28:55.846Z,11.50
2017-10-14T02:33:59.284Z,11.50
2017-10-14T02:39:03.914Z,11.30
2017-10-14T02:44:09.772Z,11.30
2017-10-14T02:49:14.186Z,11.40
2017-10-14T02:54:18.472Z,11.30
2017-10-14T02:59:20.627Z,11.20
2017-10-14T03:04:22.997Z,11.10
2017-10-14T03:09:26.046Z,11.00
2017-10-14T03:14:28.508Z,10.90
2017-10-14T03:19:30.695Z,10.80
2017-10-14T03:24:32.574Z,10.90
2017-10-14T03:29:34.451Z,10.80
2017-10-14T03:34:36.328Z,10.80
2017-10-14T03:39:38.206Z,10.80
2017-10-14T03:44:40.392Z,10.70
2017-10-14T03:49:42.475Z,10.70
2017-10-14T03:54:44.351Z,10.70
2017-10-14T03:59:46.228Z,10.60
2017-10-14T04:04:48.311Z,10.50
2017-10-14T04:09:50.189Z,10.60
2017-10-14T04:14:52.065Z,10.60
2017-10-14T04:19:54.148Z,10.50
2017-10-14T04:24:56.025Z,10.50
2017-10-14T04:29:58.108Z,10.50
2017-10-14T04:35:00.195Z,10.40
2017-10-14T04:40:02.485Z,10.30
2017-10-14T04:45:04.768Z,10.30
2017-10-14T04:50:06.953Z,10.30
2017-10-14T04:55:08.826Z,10.30
2017-10-14T05:00:10.705Z,10.20
2017-10-14T05:05:12.582Z,10.20
2017-10-14T05:10:14.460Z,10.20
2017-10-14T05:15:17.566Z,10.10
2017-10-14T05:20:19.751Z,10.10
2017-10-14T05:25:21.628Z,10.10
2017-10-14T05:30:23.710Z,10.00
2017-10-14T05:35:25.792Z,10.00
2017-10-14T05:40:27.877Z,10.00
2017-10-14T05:45:30.062Z,10.00
2017-10-14T05:50:32.246Z,9.90
2017-10-14T05:55:34.329Z,9.90
2017-10-14T06:00:36.514Z,9.90
2017-10-14T06:05:38.594Z,9.90
2017-10-14T06:10:40.676Z,9.90
2017-10-14T06:15:42.861Z,9.90
2017-10-14T06:20:45.967Z,10.10
2017-10-14T06:25:48.056Z,10.60
2017-10-14T06:30:49.927Z,11.00
2017-10-14T06:35:52.009Z,11.40
2017-10-14T06:40:54.091Z,11.90
2017-10-14T06:45:55.971Z,12.50
2017-10-14T06:50:59.177Z,12.80
2017-10-14T06:56:01.055Z,13.20
2017-10-14T07:01:02.968Z,13.60
2017-10-14T07:06:04.847Z,13.70
2017-10-14T07:11:06.688Z,14.00
2017-10-14T07:16:08.769Z,14.60
2017-10-14T07:21:10.648Z,14.60
2017-10-14T07:26:12.730Z,14.50
2017-10-14T07:31:14.606Z,14.70
2017-10-14T07:36:17.338Z,15.40
2017-10-14T07:41:20.207Z,16.40
2017-10-14T07:46:22.692Z,16.90
2017-10-14T07:51:25.802Z,17.40
2017-10-14T07:56:27.986Z,17.80
2017-10-14T08:01:30.070Z,18.30
2017-10-14T08:06:32.154Z,18.30
2017-10-14T08:11:34.233Z,18.80
2017-10-14T08:16:36.317Z,19.10
2017-10-14T08:21:38.194Z,19.70
2017-10-14T08:26:40.155Z,19.80
2017-10-14T08:31:42.852Z,20.70
2017-10-14T08:36:44.779Z,20.70
2017-10-14T08:41:46.699Z,21.10
2017-10-14T08:46:49.674Z,21.30
2017-10-14T08:51:51.739Z,21.80
2017-10-14T08:56:53.584Z,21.90
2017-10-14T09:01:55.615Z,21.80
2017-10-14T09:06:57.791Z,22.50
2017-10-14T09:11:59.848Z,23.10
2017-10-14T09:17:01.954Z,23.40
2017-10-14T09:22:05.047Z,23.30
2017-10-14T09:27:08.007Z,23.80
2017-10-14T09:32:10.352Z,23.80
2017-10-14T09:37:12.427Z,24.00
2017-10-14T09:42:14.711Z,24.70
2017-10-14T09:47:18.627Z,24.60
2017-10-14T09:52:21.440Z,25.40
2017-10-14T09:57:23.496Z,25.30
2017-10-14T10:02:26.155Z,24.10
2017-10-14T10:07:28.127Z,24.00
2017-10-14T10:12:30.009Z,22.50
2017-10-14T10:17:32.006Z,22.40
2017-10-14T10:22:34.883Z,22.70
2017-10-14T10:27:36.759Z,22.30
2017-10-14T10:32:38.775Z,22.60
2017-10-14T10:37:40.703Z,22.30
2017-10-14T10:42:42.503Z,21.80
2017-10-14T10:47:44.383Z,21.40
2017-10-14T10:52:46.276Z,21.60
2017-10-14T10:57:48.183Z,21.30
2017-10-14T11:02:50.051Z,21.40
2017-10-14T11:07:52.351Z,21.40
2017-10-14T11:12:55.758Z,21.10
2017-10-14T11:17:58.464Z,21.40
2017-10-14T11:23:00.323Z,21.30
2017-10-14T11:28:02.303Z,21.20
2017-10-14T11:33:04.387Z,21.50
2017-10-14T11:38:06.264Z,21.30
2017-10-14T11:43:08.245Z,21.30
2017-10-14T11:48:11.350Z,21.30
2017-10-14T11:53:13.444Z,21.40
2017-10-14T11:58:15.617Z,21.30
2017-10-14T12:03:17.800Z,21.20
2017-10-14T12:08:19.894Z,21.20
2017-10-14T12:13:21.972Z,21.10
2017-10-14T12:18:24.052Z,21.20
2017-10-14T12:23:25.927Z,21.20
2017-10-14T12:28:28.244Z,21.20
2017-10-14T12:33:30.710Z,21.10
2017-10-14T12:38:32.780Z,21.10
2017-10-14T12:43:34.666Z,21.30
2017-10-14T12:48:37.568Z,21.30
2017-10-14T12:53:40.470Z,21.30
2017-10-14T12:58:42.554Z,21.30
2017-10-14T13:03:44.634Z,21.40
2017-10-14T13:08:46.512Z,21.30
2017-10-14T13:13:48.389Z,21.40
2017-10-14T13:18:51.905Z,21.40
2017-10-14T13:23:53.882Z,21.40
2017-10-14T13:28:56.171Z,21.50
2017-10-14T13:33:58.049Z,21.30
2017-10-14T13:38:59.925Z,21.30
2017-10-14T13:44:01.806Z,21.40
2017-10-14T13:49:03.685Z,21.50
2017-10-14T13:54:05.763Z,21.40
2017-10-14T13:59:07.866Z,21.40
2017-10-14T14:04:09.825Z,21.50
2017-10-14T14:09:12.010Z,21.40
2017-10-14T14:14:15.118Z,21.40
2017-10-14T14:19:16.993Z,21.40
2017-10-14T14:24:20.305Z,21.50
2017-10-14T14:29:23.206Z,21.30
2017-10-14T14:34:25.288Z,21.30
2017-10-14T14:39:28.191Z,21.30
2017-10-14T14:44:30.068Z,21.30
2017-10-14T14:49:31.953Z,21.20
2017-10-14T14:54:35.257Z,21.10
2017-10-14T14:59:37.139Z,21.10
2017-10-14T15:04:39.011Z,21.10
2017-10-14T15:09:43.142Z,21.10
2017-10-14T15:14:47.067Z,21.00
2017-10-14T15:19:49.968Z,20.90
2017-10-14T15:24:51.846Z,21.00
2017-10-14T15:29:54.154Z,20.90
2017-10-14T15:34:57.547Z,20.90
2017-10-14T15:39:59.423Z,20.90
2017-10-14T15:45:01.301Z,20.80
2017-10-14T15:50:03.179Z,20.70
2017-10-14T15:55:05.056Z,20.60
2017-10-14T16:00:06.937Z,20.50
2017-10-14T16:05:09.017Z,20.40
2017-10-14T16:10:10.894Z,20.30
2017-10-14T16:15:12.976Z,20.30
2017-10-14T16:20:14.854Z,20.10
2017-10-14T16:25:17.246Z,20.10
2017-10-14T16:30:19.429Z,19.90
2017-10-14T16:35:21.307Z,19.80
2017-10-14T16:40:23.185Z,19.70
2017-10-14T16:45:25.061Z,19.40
2017-10-14T16:50:27.472Z,19.20
2017-10-14T16:55:30.352Z,19.00
2017-10-14T17:00:32.230Z,18.80
2017-10-14T17:05:34.311Z,18.60
2017-10-14T17:10:36.395Z,18.40
2017-10-14T17:15:38.580Z,18.30
2017-10-14T17:20:40.763Z,18.20
2017-10-14T17:25:44.896Z,18.10
2017-10-14T17:30:47.182Z,18.00
2017-10-14T17:35:50.292Z,17.80
2017-10-14T17:40:53.191Z,17.70
2017-10-14T17:45:55.066Z,17.50
2017-10-14T17:50:56.943Z,17.40
2017-10-14T17:56:00.153Z,17.30
2017-10-14T18:01:02.029Z,17.20
2017-10-14T18:06:03.908Z,17.20
2017-10-14T18:11:05.788Z,17.00
2017-10-14T18:16:07.664Z,16.90
2017-10-14T18:21:10.565Z,16.70
2017-10-14T18:26:17.211Z,16.70
2017-10-14T18:31:20.259Z,16.60
2017-10-14T18:36:23.349Z,16.60
2017-10-14T18:41:25.740Z,16.70
2017-10-14T18:46:28.861Z,16.60
2017-10-14T18:51:30.943Z,16.50
2017-10-14T18:56:33.334Z,16.30
2017-10-14T19:01:35.212Z,16.20
2017-10-14T19:06:38.111Z,16.20
2017-10-14T19:11:39.995Z,16.10
2017-10-14T19:16:41.867Z,16.10
2017-10-14T19:21:44.927Z,16.00
2017-10-14T19:26:47.339Z,15.90
2017-10-14T19:31:51.597Z,15.60
2017-10-14T19:36:53.730Z,15.50
2017-10-14T19:41:56.067Z,15.60
2017-10-14T19:46:58.354Z,15.50
2017-10-14T19:52:01.466Z,15.40
2017-10-14T19:57:03.547Z,15.30
2017-10-14T20:02:05.528Z,15.10
2017-10-14T20:07:07.611Z,15.00
2017-10-14T20:12:09.793Z,14.80
2017-10-14T20:17:11.670Z,14.90
2017-10-14T20:22:13.546Z,15.00
2017-10-14T20:27:15.424Z,15.00
2017-10-14T20:32:17.300Z,14.90
2017-10-14T20:37:19.384Z,14.60
2017-10-14T20:42:21.260Z,14.50
2017-10-14T20:47:23.242Z,14.40
2017-10-14T20:52:25.321Z,14.40
2017-10-14T20:57:28.325Z,14.30
2017-10-14T21:02:30.204Z,14.10
2017-10-14T21:07:32.082Z,14.20
2017-10-14T21:12:36.211Z,14.10
2017-10-14T21:17:38.088Z,14.00
2017-10-14T21:22:39.947Z,13.80
2017-10-14T21:27:41.843Z,13.60
2017-10-14T21:32:43.721Z,13.60
2017-10-14T21:37:45.913Z,13.50
2017-10-14T21:42:47.806Z,13.40
2017-10-14T21:47:49.968Z,13.40
2017-10-14T21:52:52.050Z,13.40
2017-10-14T21:57:53.927Z,13.30
2017-10-14T22:02:55.907Z,13.30
2017-10-14T22:07:57.785Z,13.10
2017-10-14T22:12:59.663Z,13.20
2017-10-14T22:18:01.746Z,13.20
2017-10-14T22:23:03.829Z,13.10
2017-10-14T22:28:05.707Z,13.00
2017-10-14T22:33:07.788Z,13.00
2017-10-14T22:38:09.767Z,12.90
2017-10-14T22:43:11.644Z,12.90
2017-10-14T22:48:13.522Z,12.80
2017-10-14T22:53:15.399Z,12.80
2017-10-14T22:58:17.379Z,12.80
2017-10-14T23:03:21.175Z,12.70
2017-10-14T23:08:23.592Z,12.40
2017-10-14T23:13:25.469Z,12.30
2017-10-14T23:18:27.346Z,12.20
2017-10-14T23:23:29.326Z,12.30
2017-10-14T23:28:31.204Z,12.10
2017-10-14T23:33:33.290Z,12.00
2017-10-14T23:38:35.167Z,11.90
2017-10-14T23:43:37.047Z,11.90
2017-10-14T23:48:38.919Z,11.90
2017-10-14T23:53:40.796Z,11.90
2017-10-14T23:58:42.675Z,11.90
